createdAt,value
2022-08-25T00:02:02.023Z,101126.25
2022-08-25T00:04:30.667Z,101137.06
2022-08-25T00:07:02.666Z,101135.31
2022-08-25T00:09:30.744Z,101132.72
2022-08-25T00:11:57.538Z,101131.91
2022-08-25T00:14:30.679Z,101125.78
2022-08-25T00:16:57.651Z,101134.34
2022-08-25T00:19:28.231Z,101134.09
2022-08-25T00:21:56.455Z,101139.34
2022-08-25T00:24:23.370Z,101144.81
2022-08-25T00:26:52.912Z,101136.22
2022-08-25T00:29:20.416Z,101133.00
2022-08-25T00:31:47.756Z,101135.69
2022-08-25T00:34:23.249Z,101137.06
2022-08-25T00:36:51.912Z,101141.34
2022-08-25T00:39:21.171Z,101139.22
2022-08-25T00:41:49.847Z,101135.31
2022-08-25T00:44:18.911Z,101140.03
2022-08-25T00:46:51.775Z,101129.03
2022-08-25T00:49:36.463Z,101139.72
2022-08-25T00:52:06.018Z,101135.47
2022-08-25T00:54:37.847Z,101132.25
2022-08-25T00:57:06.700Z,101128.41
2022-08-25T00:59:34.260Z,101135.63
2022-08-25T01:02:01.723Z,101140.13
2022-08-25T01:04:28.316Z,101129.22
2022-08-25T01:06:58.184Z,101130.25
2022-08-25T01:09:25.107Z,101132.63
2022-08-25T01:11:53.015Z,101129.22
2022-08-25T01:14:21.553Z,101129.41
2022-08-25T01:16:51.266Z,101137.56
2022-08-25T01:19:21.438Z,101132.63
2022-08-25T01:21:49.466Z,101135.34
2022-08-25T01:24:40.891Z,101138.47
2022-08-25T01:27:09.081Z,101131.44
2022-08-25T01:29:37.403Z,101128.47
2022-08-25T01:32:09.000Z,101120.28
2022-08-25T01:34:37.919Z,101120.50
2022-08-25T01:37:05.878Z,101117.72
2022-08-25T01:39:34.093Z,101118.34
2022-08-25T01:42:06.646Z,101121.19
2022-08-25T01:44:36.091Z,101125.25
2022-08-25T01:47:04.684Z,101120.94
2022-08-25T01:49:32.590Z,101125.69
2022-08-25T01:52:06.053Z,101117.53
2022-08-25T01:54:32.850Z,101124.22
2022-08-25T01:56:59.742Z,101120.78
2022-08-25T01:59:27.256Z,101124.41
2022-08-25T02:01:59.584Z,101120.16
2022-08-25T02:04:32.425Z,101118.00
2022-08-25T02:07:00.470Z,101120.56
2022-08-25T02:09:27.715Z,101118.31
2022-08-25T02:11:54.535Z,101121.94
2022-08-25T02:14:21.209Z,101116.47
2022-08-25T02:16:51.268Z,101121.00
2022-08-25T02:19:19.368Z,101119.69
2022-08-25T02:21:46.121Z,101118.63
2022-08-25T02:24:12.864Z,101115.63
2022-08-25T02:26:40.515Z,101109.56
2022-08-25T02:29:08.711Z,101108.31
2022-08-25T02:31:36.166Z,101109.41
2022-08-25T02:34:04.152Z,101105.31
2022-08-25T02:36:32.182Z,101105.81
2022-08-25T02:38:59.218Z,101103.41
2022-08-25T02:41:31.403Z,101102.75
2022-08-25T02:44:02.603Z,101103.81
2022-08-25T02:46:29.683Z,101098.25
2022-08-25T02:48:57.525Z,101097.50
2022-08-25T02:51:25.955Z,101096.31
2022-08-25T02:53:52.820Z,101098.44
2022-08-25T02:56:20.141Z,101101.03
2022-08-25T02:58:47.548Z,101092.78
2022-08-25T03:01:14.844Z,101096.13
2022-08-25T03:03:43.526Z,101099.63
2022-08-25T03:06:13.197Z,101097.19
2022-08-25T03:08:42.219Z,101091.47
2022-08-25T03:11:09.357Z,101101.53
2022-08-25T03:13:36.370Z,101095.84
2022-08-25T03:16:06.170Z,101093.72
2022-08-25T03:18:40.172Z,101096.91
2022-08-25T03:21:07.626Z,101094.09
2022-08-25T03:23:34.587Z,101095.84
2022-08-25T03:26:19.940Z,101094.75
2022-08-25T03:28:46.674Z,101100.41
2022-08-25T03:31:13.409Z,101092.03
2022-08-25T03:33:40.313Z,101090.16
2022-08-25T03:36:08.642Z,101090.28
2022-08-25T03:38:38.391Z,101081.31
2022-08-25T03:41:21.684Z,101087.72
2022-08-25T03:43:49.629Z,101084.72
2022-08-25T03:46:23.171Z,101080.97
2022-08-25T03:48:50.443Z,101079.25
2022-08-25T03:51:29.766Z,101082.25
2022-08-25T03:53:58.301Z,101087.13
2022-08-25T03:56:25.419Z,101095.19
2022-08-25T03:58:52.607Z,101092.06
2022-08-25T04:01:19.311Z,101083.78
2022-08-25T04:03:47.077Z,101096.13
2022-08-25T04:06:15.409Z,101094.72
2022-08-25T04:08:42.517Z,101089.81
2022-08-25T04:11:19.484Z,101080.03
2022-08-25T04:13:47.242Z,101095.19
2022-08-25T04:16:18.654Z,101093.50
2022-08-25T04:18:47.746Z,101103.63
2022-08-25T04:21:15.640Z,101103.84
2022-08-25T04:23:44.406Z,101102.16
2022-08-25T04:26:16.375Z,101111.59
2022-08-25T04:28:43.345Z,101112.84
2022-08-25T04:31:12.189Z,101106.34
2022-08-25T04:33:39.144Z,101110.47
2022-08-25T04:36:11.950Z,101105.75
2022-08-25T04:38:41.524Z,101098.16
2022-08-25T04:41:10.065Z,101099.88
2022-08-25T04:43:38.728Z,101099.03
2022-08-25T04:46:08.112Z,101099.88
2022-08-25T04:48:35.262Z,101099.91
2022-08-25T04:51:09.864Z,101100.53
2022-08-25T04:53:37.291Z,101095.44
2022-08-25T04:56:08.465Z,101096.19
2022-08-25T04:58:36.673Z,101090.53
2022-08-25T05:01:05.547Z,101086.75
2022-08-25T05:03:32.997Z,101089.44
2022-08-25T05:05:59.646Z,101091.81
2022-08-25T05:08:26.486Z,101083.50
2022-08-25T05:10:54.666Z,101082.59
2022-08-25T05:13:22.462Z,101078.28
2022-08-25T05:15:54.075Z,101080.16
2022-08-25T05:18:23.057Z,101082.06
2022-08-25T05:20:50.900Z,101078.91
2022-08-25T05:23:17.720Z,101075.44
2022-08-25T05:25:44.559Z,101076.72
2022-08-25T05:28:11.533Z,101085.09
2022-08-25T05:30:40.192Z,101082.53
2022-08-25T05:33:07.571Z,101082.84
2022-08-25T05:35:34.100Z,101092.56
2022-08-25T05:38:00.993Z,101089.13
2022-08-25T05:40:28.499Z,101091.88
2022-08-25T05:42:55.268Z,101099.50
2022-08-25T05:45:22.054Z,101093.34
2022-08-25T05:47:49.307Z,101095.09
2022-08-25T05:50:16.927Z,101091.63
2022-08-25T05:52:44.299Z,101082.59
2022-08-25T05:55:11.098Z,101083.81
2022-08-25T05:57:37.923Z,101080.19
2022-08-25T06:00:06.508Z,101086.56
2022-08-25T06:02:43.831Z,101090.63
2022-08-25T06:05:21.610Z,101092.38
2022-08-25T06:07:50.479Z,101089.72
2022-08-25T06:10:18.067Z,101093.28
2022-08-25T06:12:45.912Z,101091.09
2022-08-25T06:15:20.204Z,101081.38
2022-08-25T06:17:48.121Z,101084.94
2022-08-25T06:20:22.045Z,101087.50
2022-08-25T06:22:52.436Z,101081.91
2022-08-25T06:25:21.815Z,101076.53
2022-08-25T06:27:49.046Z,101075.75
2022-08-25T06:30:24.141Z,101074.06
2022-08-25T06:32:52.583Z,101074.25
2022-08-25T06:35:20.000Z,101077.25
2022-08-25T06:37:47.243Z,101077.66
2022-08-25T06:40:15.129Z,101073.72
2022-08-25T06:42:42.247Z,101076.03
2022-08-25T06:45:09.543Z,101081.19
2022-08-25T06:47:36.345Z,101076.28
2022-08-25T06:50:04.723Z,101080.47
2022-08-25T06:52:31.769Z,101088.53
2022-08-25T06:54:58.646Z,101090.72
2022-08-25T06:57:25.363Z,101086.44
2022-08-25T06:59:53.721Z,101087.81
2022-08-25T07:02:22.312Z,101096.56
2022-08-25T07:04:49.540Z,101087.75
2022-08-25T07:07:16.207Z,101098.03
2022-08-25T07:09:43.104Z,101100.97
2022-08-25T07:12:10.007Z,101097.03
2022-08-25T07:14:37.022Z,101092.63
2022-08-25T07:17:10.527Z,101095.97
2022-08-25T07:19:41.021Z,101087.41
2022-08-25T07:22:07.841Z,101085.72
2022-08-25T07:24:36.242Z,101082.06
2022-08-25T07:27:03.075Z,101080.00
2022-08-25T07:29:32.092Z,101079.50
2022-08-25T07:32:01.405Z,101079.88
2022-08-25T07:34:52.474Z,101074.47
2022-08-25T07:37:38.319Z,101078.06
2022-08-25T07:40:09.407Z,101077.88
2022-08-25T07:42:36.095Z,101078.59
2022-08-25T07:45:06.177Z,101076.53
2022-08-25T07:47:34.854Z,101080.50
2022-08-25T07:50:01.794Z,101075.09
2022-08-25T07:52:28.558Z,101075.47
2022-08-25T07:54:55.404Z,101067.19
2022-08-25T07:57:23.983Z,101063.94
2022-08-25T07:59:50.714Z,101059.97
2022-08-25T08:02:19.391Z,101067.72
2022-08-25T08:04:51.223Z,101058.19
2022-08-25T08:07:41.983Z,101059.31
2022-08-25T08:13:00.601Z,101053.75
2022-08-25T08:15:29.535Z,101055.16
2022-08-25T08:17:57.219Z,101050.75
2022-08-25T08:20:25.212Z,101054.38
2022-08-25T08:22:52.149Z,101055.03
2022-08-25T08:25:21.606Z,101055.31
2022-08-25T08:27:55.040Z,101046.47
2022-08-25T08:30:23.763Z,101054.78
2022-08-25T08:33:11.852Z,101053.94
2022-08-25T08:35:42.182Z,101055.97
2022-08-25T08:38:14.428Z,101039.34
2022-08-25T08:41:22.996Z,101050.00
2022-08-25T08:43:56.425Z,101047.66
2022-08-25T08:46:23.374Z,101042.75
2022-08-25T08:49:09.876Z,101044.38
2022-08-25T08:51:51.366Z,101046.34
2022-08-25T08:54:25.205Z,101036.56
2022-08-25T08:57:16.668Z,101035.38
2022-08-25T08:59:50.393Z,101032.41
2022-08-25T09:02:39.319Z,101035.34
2022-08-25T09:05:20.086Z,101030.09
2022-08-25T09:07:57.605Z,101025.72
2022-08-25T09:10:29.253Z,101026.88
2022-08-25T09:13:11.878Z,101031.53
2022-08-25T09:16:13.156Z,101030.34
2022-08-25T09:19:21.226Z,101033.44
2022-08-25T09:22:33.598Z,101027.31
2022-08-25T09:25:08.496Z,101032.06
2022-08-25T09:27:46.538Z,101029.72
2022-08-25T09:30:17.155Z,101022.59
2022-08-25T09:33:05.107Z,101019.06
2022-08-25T09:35:34.260Z,101012.31
2022-08-25T09:38:12.396Z,101009.28
2022-08-25T09:40:42.998Z,101008.25
2022-08-25T09:43:21.925Z,101015.34
2022-08-25T09:45:58.179Z,101015.53
2022-08-25T09:48:40.901Z,101006.59
2022-08-25T09:51:20.884Z,101011.19
2022-08-25T09:54:20.365Z,101004.63
2022-08-25T09:56:54.862Z,100998.66
2022-08-25T09:59:36.616Z,100994.94
2022-08-25T10:02:25.947Z,100995.81
2022-08-25T10:04:54.345Z,100996.94
2022-08-25T10:07:51.804Z,100999.66
2022-08-25T10:10:34.499Z,100993.16
2022-08-25T10:13:03.600Z,100984.72
2022-08-25T10:15:36.600Z,100990.56
2022-08-25T10:18:15.767Z,100986.84
2022-08-25T10:20:44.956Z,100979.88
2022-08-25T10:23:19.134Z,100981.69
2022-08-25T10:25:59.277Z,100975.44
2022-08-25T10:28:35.024Z,100964.72
2022-08-25T10:31:25.818Z,100969.81
2022-08-25T10:34:05.211Z,100968.63
2022-08-25T10:36:56.077Z,100963.16
2022-08-25T10:39:55.391Z,100964.06
2022-08-25T10:42:49.474Z,100958.94
2022-08-25T10:45:43.484Z,100949.13
2022-08-25T10:48:35.050Z,100948.22
2022-08-25T10:51:19.622Z,100944.09
2022-08-25T10:54:07.849Z,100945.97
2022-08-25T10:56:40.868Z,100943.31
2022-08-25T10:59:25.853Z,100937.53
2022-08-25T11:02:12.871Z,100938.47
2022-08-25T11:04:53.024Z,100934.25
2022-08-25T11:07:35.853Z,100928.31
2022-08-25T11:10:12.351Z,100932.81
2022-08-25T11:12:57.265Z,100927.09
2022-08-25T11:15:50.238Z,100915.50
2022-08-25T11:18:31.893Z,100912.75
2022-08-25T11:21:14.123Z,100907.81
2022-08-25T11:24:09.187Z,100896.00
2022-08-25T11:26:38.085Z,100897.47
2022-08-25T11:29:17.714Z,100898.75
2022-08-25T11:31:52.857Z,100899.09
2022-08-25T11:34:21.597Z,100898.97
2022-08-25T11:36:58.104Z,100893.78
2022-08-25T11:39:54.395Z,100893.16
2022-08-25T11:42:35.095Z,100885.75
2022-08-25T11:45:23.651Z,100883.13
2022-08-25T11:48:18.233Z,100885.78
2022-08-25T11:51:03.528Z,100881.09
2022-08-25T11:53:37.960Z,100880.47
2022-08-25T11:56:32.658Z,100878.53
2022-08-25T11:59:01.478Z,100871.19
2022-08-25T12:01:40.482Z,100870.41
2022-08-25T12:04:31.695Z,100866.63
2022-08-25T12:07:08.844Z,100863.25
2022-08-25T12:09:55.492Z,100863.53
2022-08-25T12:12:28.309Z,100859.84
2022-08-25T12:14:55.174Z,100857.78
2022-08-25T12:17:36.833Z,100849.47
2022-08-25T12:20:07.098Z,100855.97
2022-08-25T12:22:34.271Z,100846.06
2022-08-25T12:25:24.475Z,100839.28
2022-08-25T12:27:51.412Z,100841.22
2022-08-25T12:30:47.749Z,100838.47
2022-08-25T12:33:26.289Z,100832.25
2022-08-25T12:36:05.275Z,100831.13
2022-08-25T12:38:53.005Z,100822.13
2022-08-25T12:41:24.514Z,100825.72
2022-08-25T12:43:54.483Z,100821.63
2022-08-25T12:46:21.255Z,100831.91
2022-08-25T12:49:14.398Z,100818.50
2022-08-25T12:51:57.348Z,100818.47
2022-08-25T12:54:41.007Z,100823.19
2022-08-25T12:57:29.487Z,100814.00
2022-08-25T12:59:59.802Z,100817.88
2022-08-25T13:02:51.665Z,100808.03
2022-08-25T13:05:22.020Z,100810.53
2022-08-25T13:08:22.646Z,100806.09
2022-08-25T13:11:05.562Z,100799.88
2022-08-25T13:13:47.389Z,100803.22
2022-08-25T13:16:28.446Z,100795.94
2022-08-25T13:18:59.366Z,100784.66
2022-08-25T13:21:41.916Z,100779.22
2022-08-25T13:24:30.298Z,100772.59
2022-08-25T13:27:09.539Z,100779.78
2022-08-25T13:29:49.352Z,100763.66
2022-08-25T13:32:27.082Z,100764.91
2022-08-25T13:35:14.525Z,100765.69
2022-08-25T13:37:41.358Z,100762.47
2022-08-25T13:40:20.261Z,100767.28
2022-08-25T13:42:58.112Z,100748.72
2022-08-25T13:45:31.797Z,100748.38
2022-08-25T13:47:59.079Z,100734.81
2022-08-25T13:50:26.445Z,100722.94
2022-08-25T13:53:23.869Z,100735.56
2022-08-25T13:55:57.133Z,100727.13
2022-08-25T13:58:45.242Z,100724.63
2022-08-25T14:01:48.050Z,100721.56
2022-08-25T14:04:20.101Z,100718.34
2022-08-25T14:06:47.286Z,100707.56
2022-08-25T14:09:28.304Z,100716.97
2022-08-25T14:11:58.669Z,100715.69
2022-08-25T14:14:25.280Z,100711.66
2022-08-25T14:17:28.803Z,100708.69
2022-08-25T14:19:59.627Z,100704.22
2022-08-25T14:22:27.128Z,100703.19
2022-08-25T14:24:55.696Z,100698.22
2022-08-25T14:27:22.424Z,100701.84
2022-08-25T14:29:52.700Z,100705.47
2022-08-25T14:32:19.892Z,100713.59
2022-08-25T14:34:47.150Z,100701.09
2022-08-25T14:37:17.247Z,100692.28
2022-08-25T14:39:44.761Z,100692.28
2022-08-25T14:42:12.588Z,100688.88
2022-08-25T14:44:39.666Z,100689.16
2022-08-25T14:47:07.768Z,100685.00
2022-08-25T14:49:38.498Z,100677.94
2022-08-25T14:52:13.156Z,100680.38
2022-08-25T14:54:39.871Z,100678.63
2022-08-25T14:57:08.300Z,100672.84
2022-08-25T14:59:35.608Z,100671.16
2022-08-25T15:02:14.223Z,100673.59
2022-08-25T15:04:48.975Z,100666.88
2022-08-25T15:07:37.469Z,100663.75
2022-08-25T15:10:07.808Z,100664.78
2022-08-25T15:12:46.574Z,100665.97
2022-08-25T15:15:14.970Z,100660.06
2022-08-25T15:17:44.628Z,100666.97
2022-08-25T15:20:11.891Z,100669.22
2022-08-25T15:22:38.676Z,100664.25
2022-08-25T15:25:05.929Z,100661.66
2022-08-25T15:27:34.576Z,100657.00
2022-08-25T15:30:02.804Z,100656.19
2022-08-25T15:32:29.489Z,100649.59
2022-08-25T15:34:56.102Z,100647.59
2022-08-25T15:37:23.515Z,100651.84
2022-08-25T15:39:50.314Z,100651.47
2022-08-25T15:42:17.087Z,100650.38
2022-08-25T15:44:53.164Z,100645.66
2022-08-25T15:47:21.806Z,100657.63
2022-08-25T15:49:48.477Z,100656.56
2022-08-25T15:52:15.399Z,100646.41
2022-08-25T15:54:42.025Z,100646.56
2022-08-25T15:57:15.115Z,100648.38
2022-08-25T15:59:52.482Z,100645.66
2022-08-25T16:02:20.704Z,100640.69
2022-08-25T16:04:47.647Z,100643.56
2022-08-25T16:07:14.296Z,100633.03
2022-08-25T16:09:41.817Z,100631.47
2022-08-25T16:12:08.998Z,100630.78
2022-08-25T16:14:38.275Z,100630.06
2022-08-25T16:17:06.568Z,100626.81
2022-08-25T16:19:33.584Z,100631.34
2022-08-25T16:22:06.633Z,100617.06
2022-08-25T16:24:38.448Z,100625.94
2022-08-25T16:27:11.042Z,100618.84
2022-08-25T16:29:42.628Z,100622.13
2022-08-25T16:32:11.440Z,100614.56
2022-08-25T16:34:40.702Z,100610.56
2022-08-25T16:37:08.690Z,100610.94
2022-08-25T16:39:36.097Z,100595.50
2022-08-25T16:42:06.940Z,100598.78
2022-08-25T16:44:34.539Z,100607.22
2022-08-25T16:47:02.099Z,100608.59
2022-08-25T16:49:28.954Z,100601.47
2022-08-25T16:51:57.280Z,100606.06
2022-08-25T16:54:44.360Z,100607.88
2022-08-25T16:57:11.621Z,100608.38
2022-08-25T16:59:38.143Z,100598.16
2022-08-25T17:02:06.519Z,100607.97
2022-08-25T17:04:33.304Z,100603.59
2022-08-25T17:07:00.069Z,100594.13
2022-08-25T17:09:29.578Z,100590.59
2022-08-25T17:11:57.274Z,100607.97
2022-08-25T17:14:24.479Z,100594.75
2022-08-25T17:16:54.697Z,100596.53
2022-08-25T17:19:23.611Z,100601.72
2022-08-25T17:21:51.046Z,100600.41
2022-08-25T17:24:18.262Z,100609.22
2022-08-25T17:26:47.284Z,100608.28
2022-08-25T17:29:14.016Z,100605.94
2022-08-25T17:31:42.936Z,100597.13
2022-08-25T17:34:16.428Z,100594.31
2022-08-25T17:36:44.052Z,100599.31
2022-08-25T17:39:13.211Z,100594.47
2022-08-25T17:41:43.100Z,100599.97
2022-08-25T17:44:09.810Z,100602.66
2022-08-25T17:46:36.945Z,100601.13
2022-08-25T17:49:04.326Z,100601.97
2022-08-25T17:51:32.032Z,100598.94
2022-08-25T17:53:59.312Z,100612.16
2022-08-25T17:56:27.844Z,100601.03
2022-08-25T17:58:56.062Z,100602.22
2022-08-25T18:01:27.683Z,100605.94
2022-08-25T18:03:55.038Z,100608.13
2022-08-25T18:06:23.810Z,100614.50
2022-08-25T18:08:53.011Z,100616.28
2022-08-25T18:11:23.649Z,100612.53
2022-08-25T18:13:54.761Z,100616.59
2022-08-25T18:16:22.610Z,100614.88
2022-08-25T18:18:49.770Z,100620.50
2022-08-25T18:21:20.437Z,100622.81
2022-08-25T18:23:47.810Z,100621.41
2022-08-25T18:26:15.460Z,100625.06
2022-08-25T18:28:44.000Z,100623.34
2022-08-25T18:31:13.134Z,100617.75
2022-08-25T18:33:42.222Z,100626.34
2022-08-25T18:36:10.010Z,100619.38
2022-08-25T18:38:58.137Z,100627.81
2022-08-25T18:41:26.834Z,100630.84
2022-08-25T18:43:53.517Z,100638.31
2022-08-25T18:46:22.602Z,100639.19
2022-08-25T18:48:52.964Z,100636.66
2022-08-25T18:51:23.273Z,100638.34
2022-08-25T18:53:54.603Z,100642.75
2022-08-25T18:56:26.718Z,100641.09
2022-08-25T18:58:53.456Z,100637.69
2022-08-25T19:01:20.651Z,100633.59
2022-08-25T19:03:49.253Z,100634.16
2022-08-25T19:06:16.962Z,100637.06
2022-08-25T19:08:44.622Z,100645.03
2022-08-25T19:11:12.187Z,100646.91
2022-08-25T19:13:39.451Z,100648.22
2022-08-25T19:16:14.019Z,100650.47
2022-08-25T19:18:44.979Z,100648.53
2022-08-25T19:21:11.858Z,100646.84
2022-08-25T19:23:38.998Z,100646.06
2022-08-25T19:26:08.686Z,100646.53
2022-08-25T19:28:45.521Z,100651.06
2022-08-25T19:31:12.636Z,100654.81
2022-08-25T19:33:44.863Z,100653.50
2022-08-25T19:36:12.199Z,100655.66
2022-08-25T19:38:39.415Z,100656.44
2022-08-25T19:41:09.399Z,100659.16
2022-08-25T19:43:56.147Z,100658.31
2022-08-25T19:46:32.245Z,100656.91
2022-08-25T19:49:08.025Z,100661.63
2022-08-25T19:51:38.520Z,100664.31
2022-08-25T19:54:06.492Z,100667.19
2022-08-25T19:56:37.517Z,100656.13
2022-08-25T19:59:11.268Z,100661.63
2022-08-25T20:01:38.812Z,100661.25
2022-08-25T20:04:07.228Z,100659.75
2022-08-25T20:06:33.964Z,100669.03
2022-08-25T20:09:00.778Z,100666.53
2022-08-25T20:11:28.969Z,100664.84
2022-08-25T20:13:59.297Z,100661.25
2022-08-25T20:16:29.919Z,100662.63
2022-08-25T20:18:56.672Z,100660.53
2022-08-25T20:21:24.325Z,100670.16
2022-08-25T20:24:09.303Z,100673.03
2022-08-25T20:26:36.429Z,100667.91
2022-08-25T20:29:05.208Z,100658.03
2022-08-25T20:31:32.589Z,100663.63
2022-08-25T20:34:02.846Z,100673.22
2022-08-25T20:36:30.216Z,100665.44
2022-08-25T20:38:59.023Z,100657.84
2022-08-25T20:41:25.988Z,100664.03
2022-08-25T20:43:52.767Z,100662.38
2022-08-25T20:46:19.626Z,100660.72
2022-08-25T20:48:47.014Z,100664.41
2022-08-25T20:51:18.680Z,100660.28
2022-08-25T20:53:45.849Z,100664.34
2022-08-25T20:56:15.717Z,100663.97
2022-08-25T20:58:43.124Z,100665.34
2022-08-25T21:01:20.339Z,100667.00
2022-08-25T21:03:50.399Z,100659.22
2022-08-25T21:06:17.214Z,100656.97
2022-08-25T21:08:47.021Z,100658.06
2022-08-25T21:11:17.991Z,100671.22
2022-08-25T21:13:45.940Z,100663.03
2022-08-25T21:16:12.687Z,100666.63
2022-08-25T21:18:47.857Z,100663.97
2022-08-25T21:21:16.810Z,100663.06
2022-08-25T21:23:47.443Z,100656.75
2022-08-25T21:26:27.831Z,100663.19
2022-08-25T21:28:59.000Z,100650.97
2022-08-25T21:31:26.240Z,100657.16
2022-08-25T21:33:56.165Z,100648.31
2022-08-25T21:36:24.683Z,100648.59
2022-08-25T21:38:53.166Z,100650.63
2022-08-25T21:41:27.087Z,100651.44
2022-08-25T21:43:54.391Z,100645.78
2022-08-25T21:46:24.472Z,100646.84
2022-08-25T21:48:52.508Z,100648.53
2022-08-25T21:51:26.771Z,100645.06
2022-08-25T21:54:08.921Z,100640.88
2022-08-25T21:56:37.942Z,100636.38
2022-08-25T21:59:06.328Z,100646.75
2022-08-25T22:01:33.770Z,100639.88
2022-08-25T22:04:02.179Z,100638.88
2022-08-25T22:06:29.861Z,100645.47
2022-08-25T22:08:56.604Z,100637.47
2022-08-25T22:11:23.416Z,100639.97
2022-08-25T22:13:51.649Z,100645.19
2022-08-25T22:16:22.372Z,100638.66
2022-08-25T22:18:49.793Z,100632.41
2022-08-25T22:21:18.731Z,100627.75
2022-08-25T22:23:45.500Z,100630.31
2022-08-25T22:26:15.514Z,100623.44
2022-08-25T22:28:46.561Z,100626.06
2022-08-25T22:31:14.652Z,100632.75
2022-08-25T22:33:48.583Z,100631.66
2022-08-25T22:36:19.220Z,100625.75
2022-08-25T22:38:47.841Z,100633.84
2022-08-25T22:41:19.061Z,100623.19
2022-08-25T22:43:49.631Z,100629.44
2022-08-25T22:46:20.601Z,100631.75
2022-08-25T22:48:47.360Z,100630.34
2022-08-25T22:51:23.455Z,100630.47
2022-08-25T22:53:50.740Z,100630.66
2022-08-25T22:56:21.160Z,100631.00
2022-08-25T22:58:51.702Z,100625.56
2022-08-25T23:01:20.274Z,100635.22
2022-08-25T23:03:47.581Z,100635.53
2022-08-25T23:06:24.604Z,100640.69
2022-08-25T23:08:54.092Z,100634.19
2022-08-25T23:11:22.098Z,100631.00
2022-08-25T23:13:49.065Z,100633.44
2022-08-25T23:16:17.010Z,100634.41
2022-08-25T23:18:47.159Z,100636.72
2022-08-25T23:21:35.126Z,100626.56
2022-08-25T23:24:05.750Z,100629.56
2022-08-25T23:26:33.936Z,100623.31
2022-08-25T23:29:01.134Z,100625.66
2022-08-25T23:31:30.396Z,100624.09
2022-08-25T23:33:57.734Z,100610.59
2022-08-25T23:36:24.754Z,100614.00
2022-08-25T23:38:52.702Z,100604.47
2022-08-25T23:41:24.577Z,100598.97
2022-08-25T23:43:52.801Z,100610.47
2022-08-25T23:46:23.339Z,100608.31
2022-08-25T23:48:51.596Z,100597.53
2022-08-25T23:51:30.812Z,100597.53
2022-08-25T23:53:59.334Z,100597.25
2022-08-25T23:56:26.221Z,100597.53
2022-08-25T23:58:55.530Z,100593.56
